createdAt,value
2019-04-21T00:01:30.711Z,12.20
2019-04-21T00:03:40.780Z,12.10
2019-04-21T00:05:58.957Z,12.20
2019-04-21T00:08:03.657Z,12.20
2019-04-21T00:10:07.596Z,12.20
2019-04-21T00:12:11.966Z,12.20
2019-04-21T00:14:01.899Z,12.20
2019-04-21T00:16:00.246Z,12.20
2019-04-21T00:18:05.928Z,12.20
2019-04-21T00:20:17.637Z,12.20
2019-04-21T00:22:23.530Z,12.30
2019-04-21T00:24:25.122Z,12.30
2019-04-21T00:26:35.186Z,12.30
2019-04-21T00:28:42.449Z,12.30
2019-04-21T00:30:44.301Z,12.20
2019-04-21T00:32:39.031Z,12.10
2019-04-21T00:34:32.158Z,12.00
2019-04-21T00:36:47.541Z,12.00
2019-04-21T00:39:09.933Z,11.90
2019-04-21T00:41:09.263Z,11.80
2019-04-21T00:43:03.688Z,11.80
2019-04-21T00:45:01.820Z,11.80
2019-04-21T00:47:18.006Z,11.80
2019-04-21T00:49:18.313Z,11.70
2019-04-21T00:51:33.322Z,11.70
2019-04-21T00:53:48.411Z,11.60
2019-04-21T00:55:51.110Z,11.50
2019-04-21T00:57:58.580Z,11.40
2019-04-21T01:00:01.212Z,11.30
2019-04-21T01:01:55.423Z,11.30
2019-04-21T01:04:05.302Z,11.20
2019-04-21T01:06:08.221Z,11.10
2019-04-21T01:08:11.486Z,11.10
2019-04-21T01:10:05.240Z,11.10
2019-04-21T01:12:12.529Z,11.00
2019-04-21T01:14:29.791Z,10.90
2019-04-21T01:16:31.608Z,10.80
2019-04-21T01:18:29.530Z,10.70
2019-04-21T01:20:15.984Z,10.60
2019-04-21T01:22:13.441Z,10.50
2019-04-21T01:24:21.687Z,10.40
2019-04-21T01:26:32.879Z,10.40
2019-04-21T01:28:39.831Z,10.30
2019-04-21T01:30:47.253Z,10.30
2019-04-21T01:32:55.832Z,10.30
2019-04-21T01:34:57.967Z,10.20
2019-04-21T01:36:55.738Z,10.20
2019-04-21T01:39:11.973Z,10.10
2019-04-21T01:41:08.560Z,10.10
2019-04-21T01:43:11.550Z,10.00
2019-04-21T01:45:09.323Z,9.90
2019-04-21T01:47:11.078Z,9.90
2019-04-21T01:49:13.151Z,9.90
2019-04-21T01:51:22.319Z,9.80
2019-04-21T01:53:38.458Z,9.80
2019-04-21T01:55:49.681Z,9.90
2019-04-21T01:57:55.272Z,9.90
2019-04-21T01:59:51.172Z,9.90
2019-04-21T02:02:06.709Z,9.90
2019-04-21T02:04:06.871Z,9.90
2019-04-21T02:06:18.223Z,9.90
2019-04-21T02:08:10.869Z,9.90
2019-04-21T02:10:17.800Z,9.90
2019-04-21T02:12:19.963Z,9.90
2019-04-21T02:14:31.188Z,9.90
2019-04-21T02:16:30.769Z,9.80
2019-04-21T02:18:27.288Z,9.80
2019-04-21T02:20:25.807Z,9.70
2019-04-21T02:23:00.423Z,9.70
2019-04-21T02:24:49.687Z,9.70
2019-04-21T02:26:47.725Z,9.60
2019-04-21T02:28:56.033Z,9.60
2019-04-21T02:33:13.677Z,9.50
2019-04-21T02:39:19.274Z,9.40
2019-04-21T02:41:22.976Z,9.40
2019-04-21T02:43:25.121Z,9.30
2019-04-21T02:45:34.626Z,9.30
2019-04-21T02:49:45.166Z,9.10
2019-04-21T02:55:44.554Z,9.00
2019-04-21T02:57:51.758Z,8.90
2019-04-21T03:00:06.785Z,8.90
2019-04-21T03:02:25.684Z,9.00
2019-04-21T03:06:41.272Z,8.90
2019-04-21T03:12:28.629Z,8.80
2019-04-21T03:14:47.174Z,8.80
2019-04-21T03:16:40.645Z,8.80
2019-04-21T03:20:51.006Z,8.80
2019-04-21T03:22:59.914Z,8.70
2019-04-21T03:29:12.619Z,8.60
2019-04-21T03:35:49.123Z,8.40
2019-04-21T03:37:27.452Z,8.40
2019-04-21T03:41:32.343Z,8.40
2019-04-21T03:43:26.826Z,8.40
2019-04-21T03:45:39.110Z,8.40
2019-04-21T03:47:40.505Z,8.30
2019-04-21T03:49:47.437Z,8.30
2019-04-21T03:51:47.534Z,8.30
2019-04-21T03:53:55.900Z,8.30
2019-04-21T03:55:53.066Z,8.30
2019-04-21T04:00:06.232Z,8.20
2019-04-21T04:09:03.922Z,8.10
2019-04-21T04:13:04.657Z,8.00
2019-04-21T04:15:20.490Z,7.90
2019-04-21T04:19:34.430Z,7.90
2019-04-21T04:23:20.198Z,7.90
2019-04-21T04:25:27.778Z,7.90
2019-04-21T04:31:37.677Z,7.90
2019-04-21T04:35:54.262Z,7.90
2019-04-21T04:40:02.881Z,7.90
2019-04-21T04:42:13.117Z,7.90
2019-04-21T04:44:11.519Z,7.90
2019-04-21T04:50:23.449Z,7.90
2019-04-21T04:54:39.090Z,7.90
2019-04-21T04:56:54.359Z,7.90
2019-04-21T04:58:44.041Z,7.90
2019-04-21T05:00:53.716Z,8.00
2019-04-21T05:02:42.382Z,8.00
2019-04-21T05:09:10.955Z,8.00
2019-04-21T05:12:53.323Z,8.00
2019-04-21T05:15:04.519Z,8.00
2019-04-21T05:17:02.336Z,8.10
2019-04-21T05:21:28.830Z,8.20
2019-04-21T05:23:05.946Z,8.30
2019-04-21T05:25:03.489Z,8.30
2019-04-21T05:27:12.633Z,8.40
2019-04-21T05:29:17.011Z,8.40
2019-04-21T05:31:42.160Z,8.50
2019-04-21T05:33:46.536Z,8.50
2019-04-21T05:35:49.280Z,8.50
2019-04-21T05:38:03.099Z,8.60
2019-04-21T05:40:00.496Z,8.60
2019-04-21T05:42:01.885Z,8.60
2019-04-21T05:44:19.336Z,8.70
2019-04-21T05:46:26.656Z,8.80
2019-04-21T05:48:35.165Z,8.90
2019-04-21T05:50:32.493Z,8.90
2019-04-21T05:52:41.775Z,9.00
2019-04-21T05:54:59.562Z,9.00
2019-04-21T05:56:49.793Z,9.10
2019-04-21T05:58:58.217Z,9.10
2019-04-21T06:03:09.836Z,9.20
2019-04-21T06:05:20.674Z,9.30
2019-04-21T06:07:23.086Z,9.30
2019-04-21T06:09:19.039Z,9.30
2019-04-21T06:11:32.066Z,9.40
2019-04-21T06:13:34.784Z,9.50
2019-04-21T06:15:31.335Z,9.50
2019-04-21T06:17:35.164Z,9.50
2019-04-21T06:19:43.752Z,9.60
2019-04-21T06:21:40.453Z,9.60
2019-04-21T06:23:45.604Z,9.70
2019-04-21T06:26:19.446Z,9.70
2019-04-21T06:27:58.985Z,9.80
2019-04-21T06:29:59.509Z,9.90
2019-04-21T06:32:20.390Z,9.90
2019-04-21T06:34:08.086Z,10.00
2019-04-21T06:36:42.243Z,10.00
2019-04-21T06:39:01.856Z,10.10
2019-04-21T06:40:58.354Z,10.10
2019-04-21T06:43:07.927Z,10.20
2019-04-21T06:45:07.211Z,10.20
2019-04-21T06:47:09.818Z,10.30
2019-04-21T06:49:03.103Z,10.40
2019-04-21T06:51:13.300Z,10.50
2019-04-21T06:53:13.536Z,10.50
2019-04-21T06:55:15.527Z,10.60
2019-04-21T06:57:22.135Z,10.60
2019-04-21T06:59:20.843Z,10.70
2019-04-21T07:01:30.880Z,10.80
2019-04-21T07:03:38.322Z,10.90
2019-04-21T07:05:34.634Z,10.90
2019-04-21T07:07:35.253Z,10.90
2019-04-21T07:09:48.293Z,11.00
2019-04-21T07:11:44.005Z,11.10
2019-04-21T07:13:50.672Z,11.20
2019-04-21T07:15:50.187Z,11.20
2019-04-21T07:18:00.151Z,11.30
2019-04-21T07:20:03.826Z,11.30
2019-04-21T07:22:07.414Z,11.40
2019-04-21T07:24:05.251Z,11.50
2019-04-21T07:26:17.927Z,11.70
2019-04-21T07:28:09.979Z,11.70
2019-04-21T07:30:21.192Z,11.80
2019-04-21T07:32:20.994Z,11.90
2019-04-21T07:34:29.072Z,11.90
2019-04-21T07:36:41.154Z,12.00
2019-04-21T07:38:27.226Z,12.10
2019-04-21T07:40:28.814Z,12.20
2019-04-21T07:42:33.814Z,12.30
2019-04-21T07:44:34.939Z,12.40
2019-04-21T07:46:39.530Z,12.50
2019-04-21T07:48:55.679Z,12.60
2019-04-21T07:51:06.163Z,12.70
2019-04-21T07:53:16.320Z,12.80
2019-04-21T07:57:06.682Z,13.00
2019-04-21T07:59:31.562Z,13.10
2019-04-21T08:01:26.954Z,13.10
2019-04-21T08:03:31.911Z,13.20
2019-04-21T08:05:31.163Z,13.30
2019-04-21T08:07:48.225Z,13.40
2019-04-21T08:09:42.306Z,13.50
2019-04-21T08:11:36.759Z,13.60
2019-04-21T08:13:46.849Z,13.70
2019-04-21T08:15:52.851Z,13.80
2019-04-21T08:17:54.727Z,13.90
2019-04-21T08:19:53.668Z,13.90
2019-04-21T08:22:06.433Z,14.00
2019-04-21T08:24:00.197Z,14.20
2019-04-21T08:28:08.989Z,14.40
2019-04-21T08:30:14.391Z,14.40
2019-04-21T08:32:28.311Z,14.50
2019-04-21T08:38:30.210Z,14.90
2019-04-21T08:40:38.714Z,14.90
2019-04-21T08:42:38.366Z,15.00
2019-04-21T08:44:43.206Z,15.10
2019-04-21T08:46:47.182Z,15.30
2019-04-21T08:48:49.461Z,15.30
2019-04-21T08:50:53.978Z,15.40
2019-04-21T08:52:56.441Z,15.50
2019-04-21T08:55:03.743Z,15.60
2019-04-21T08:57:28.858Z,15.70
2019-04-21T09:01:48.919Z,16.00
2019-04-21T09:03:56.721Z,16.00
2019-04-21T09:06:00.069Z,16.20
2019-04-21T09:08:03.917Z,16.30
2019-04-21T09:10:02.854Z,16.40
2019-04-21T09:12:04.379Z,16.50
2019-04-21T09:14:14.721Z,16.60
2019-04-21T09:16:08.499Z,16.60
2019-04-21T09:18:15.994Z,16.70
2019-04-21T09:22:28.738Z,16.90
2019-04-21T09:24:31.534Z,17.00
2019-04-21T09:26:29.525Z,17.10
2019-04-21T09:28:32.710Z,17.20
2019-04-21T09:30:22.037Z,17.40
2019-04-21T09:32:27.635Z,17.50
2019-04-21T09:34:33.196Z,17.50
2019-04-21T09:36:38.939Z,17.60
2019-04-21T09:38:38.293Z,17.70
2019-04-21T09:40:45.444Z,17.70
2019-04-21T09:42:50.592Z,17.80
2019-04-21T09:47:52.332Z,18.10
2019-04-21T09:49:47.431Z,18.20
2019-04-21T09:51:50.518Z,18.30
2019-04-21T09:54:01.794Z,18.40
2019-04-21T09:56:01.748Z,18.50
2019-04-21T09:58:10.085Z,18.60
2019-04-21T10:00:13.059Z,18.70
2019-04-21T10:02:16.093Z,18.90
2019-04-21T10:04:12.373Z,18.90
2019-04-21T10:06:18.726Z,19.00
2019-04-21T10:08:19.700Z,19.10
2019-04-21T10:10:23.140Z,19.20
2019-04-21T10:12:26.569Z,19.30
2019-04-21T10:14:30.936Z,19.40
2019-04-21T10:16:45.059Z,19.50
2019-04-21T10:18:48.171Z,19.50
2019-04-21T10:20:51.389Z,19.60
2019-04-21T10:22:55.298Z,19.70
2019-04-21T10:24:58.498Z,19.70
2019-04-21T10:27:04.065Z,19.90
2019-04-21T10:29:09.342Z,20.00
2019-04-21T10:31:09.042Z,20.00
2019-04-21T10:33:12.515Z,20.10
2019-04-21T10:35:20.682Z,20.20
2019-04-21T10:37:19.328Z,20.20
2019-04-21T10:39:23.869Z,20.30
2019-04-21T10:41:27.462Z,20.40
2019-04-21T10:43:29.550Z,20.50
2019-04-21T10:45:32.984Z,20.50
2019-04-21T10:47:36.839Z,20.60
2019-04-21T10:49:40.300Z,20.70
2019-04-21T10:51:43.429Z,20.80
2019-04-21T10:53:52.301Z,20.90
2019-04-21T10:56:04.510Z,20.90
2019-04-21T10:58:00.724Z,21.00
2019-04-21T11:00:09.120Z,21.10
2019-04-21T11:02:18.945Z,21.20
2019-04-21T11:04:33.664Z,21.30
2019-04-21T11:06:32.872Z,21.30
2019-04-21T11:08:41.542Z,21.40
2019-04-21T11:10:40.332Z,21.50
2019-04-21T11:12:44.749Z,21.60
2019-04-21T11:14:47.246Z,21.70
2019-04-21T11:16:52.927Z,21.70
2019-04-21T11:18:55.806Z,21.70
2019-04-21T11:20:58.660Z,21.80
2019-04-21T11:23:02.167Z,21.90
2019-04-21T11:25:06.928Z,21.90
2019-04-21T11:27:09.091Z,22.00
2019-04-21T11:29:12.865Z,22.00
2019-04-21T11:31:16.178Z,22.00
2019-04-21T11:33:21.336Z,22.10
2019-04-21T11:35:23.660Z,22.10
2019-04-21T11:37:30.479Z,22.30
2019-04-21T11:39:44.107Z,22.30
2019-04-21T11:41:36.976Z,22.40
2019-04-21T11:43:41.357Z,22.40
2019-04-21T11:45:44.387Z,22.50
2019-04-21T11:47:52.234Z,22.50
2019-04-21T11:49:55.089Z,22.50
2019-04-21T11:51:58.702Z,22.60
2019-04-21T11:54:01.910Z,22.80
2019-04-21T11:56:06.824Z,22.80
2019-04-21T11:58:09.952Z,22.90
2019-04-21T12:00:13.744Z,22.90
2019-04-21T12:02:17.415Z,23.10
2019-04-21T12:04:21.300Z,23.10
2019-04-21T12:06:32.116Z,23.20
2019-04-21T12:08:35.852Z,23.30
2019-04-21T12:10:31.527Z,23.40
2019-04-21T12:12:35.097Z,23.40
2019-04-21T12:14:39.623Z,23.50
2019-04-21T12:16:43.267Z,23.50
2019-04-21T12:18:47.070Z,23.50
2019-04-21T12:20:49.302Z,23.50
2019-04-21T12:22:52.942Z,23.60
2019-04-21T12:24:57.414Z,23.60
2019-04-21T12:27:00.064Z,23.60
2019-04-21T12:29:03.903Z,23.70
2019-04-21T12:31:11.668Z,23.80
2019-04-21T12:33:24.709Z,23.90
2019-04-21T12:35:28.205Z,24.00
2019-04-21T12:37:32.911Z,24.00
2019-04-21T12:39:34.988Z,24.10
2019-04-21T12:41:38.534Z,24.20
2019-04-21T12:43:42.592Z,24.20
2019-04-21T12:45:46.068Z,24.20
2019-04-21T12:47:55.779Z,24.30
2019-04-21T12:49:59.137Z,24.50
2019-04-21T12:52:03.791Z,24.40
2019-04-21T12:54:07.989Z,24.50
2019-04-21T12:56:11.631Z,24.60
2019-04-21T12:58:15.191Z,24.60
2019-04-21T13:00:20.775Z,24.70
2019-04-21T13:02:23.544Z,24.70
2019-04-21T13:04:28.032Z,24.80
2019-04-21T13:06:31.689Z,24.80
2019-04-21T13:08:46.237Z,24.90
2019-04-21T13:10:38.341Z,24.90
2019-04-21T13:12:41.872Z,24.80
2019-04-21T13:14:45.369Z,25.00
2019-04-21T13:16:49.675Z,25.00
2019-04-21T13:18:53.328Z,25.00
2019-04-21T13:21:02.107Z,25.10
2019-04-21T13:25:11.980Z,25.20
2019-04-21T13:27:15.631Z,25.30
2019-04-21T13:29:18.823Z,25.20
2019-04-21T13:31:22.403Z,25.20
2019-04-21T13:33:27.075Z,25.40
2019-04-21T13:35:30.856Z,25.50
2019-04-21T13:37:33.286Z,25.40
2019-04-21T13:40:03.375Z,25.40
2019-04-21T13:41:56.738Z,25.40
2019-04-21T13:43:48.118Z,25.60
2019-04-21T13:45:52.146Z,25.80
2019-04-21T13:47:56.624Z,25.90
2019-04-21T13:49:59.829Z,25.80
2019-04-21T13:52:02.673Z,25.90
2019-04-21T13:54:05.700Z,25.90
2019-04-21T13:56:10.656Z,25.90
2019-04-21T13:58:12.788Z,26.00
2019-04-21T14:00:17.269Z,26.30
2019-04-21T14:02:20.764Z,26.40
2019-04-21T14:04:23.657Z,26.60
2019-04-21T14:06:27.219Z,26.40
2019-04-21T14:08:31.318Z,26.50
2019-04-21T14:10:35.488Z,26.70
2019-04-21T14:12:38.268Z,26.70
2019-04-21T14:14:42.016Z,26.80
2019-04-21T14:16:45.725Z,27.20
2019-04-21T14:18:49.534Z,27.30
2019-04-21T14:20:51.764Z,27.30
2019-04-21T14:22:59.560Z,27.40
2019-04-21T14:24:59.765Z,27.40
2019-04-21T14:27:02.670Z,27.60
2019-04-21T14:29:05.873Z,27.80
2019-04-21T14:31:10.489Z,27.90
2019-04-21T14:33:14.127Z,27.90
2019-04-21T14:35:16.712Z,27.90
2019-04-21T14:37:20.411Z,28.20
2019-04-21T14:39:23.460Z,28.00
2019-04-21T14:41:28.403Z,28.10
2019-04-21T14:43:32.044Z,28.10
2019-04-21T14:45:42.927Z,28.40
2019-04-21T14:47:50.945Z,28.50
2019-04-21T14:49:57.456Z,28.60
2019-04-21T14:52:07.872Z,28.40
2019-04-21T14:54:26.727Z,28.40
2019-04-21T14:56:29.263Z,28.50
2019-04-21T14:58:32.980Z,28.50
2019-04-21T15:00:41.865Z,28.30
2019-04-21T15:02:45.575Z,28.50
2019-04-21T15:04:49.271Z,28.70
2019-04-21T15:06:52.176Z,28.70
2019-04-21T15:08:55.656Z,28.70
2019-04-21T15:10:59.208Z,29.00
2019-04-21T15:13:03.555Z,29.00
2019-04-21T15:15:07.654Z,29.30
2019-04-21T15:17:09.950Z,29.30
2019-04-21T15:19:14.737Z,29.30
2019-04-21T15:21:17.460Z,29.70
2019-04-21T15:23:24.432Z,29.70
2019-04-21T15:25:24.115Z,29.70
2019-04-21T15:27:27.639Z,29.80
2019-04-21T15:29:31.115Z,30.10
2019-04-21T15:31:38.286Z,30.30
2019-04-21T15:33:39.144Z,30.70
2019-04-21T15:35:42.822Z,30.70
2019-04-21T15:37:46.344Z,30.60
2019-04-21T15:39:48.976Z,31.00
2019-04-21T15:41:52.562Z,31.20
2019-04-21T15:43:56.697Z,31.40
2019-04-21T15:46:00.632Z,31.50
2019-04-21T15:48:04.200Z,31.30
2019-04-21T15:50:11.970Z,31.80
2019-04-21T15:52:11.604Z,32.20
2019-04-21T15:54:14.422Z,32.60
2019-04-21T15:56:53.152Z,32.70
2019-04-21T15:59:01.279Z,33.00
2019-04-21T16:01:10.785Z,33.20
2019-04-21T16:03:14.307Z,33.00
2019-04-21T16:05:19.091Z,33.30
2019-04-21T16:07:22.339Z,33.20
2019-04-21T16:09:26.860Z,33.00
2019-04-21T16:11:28.454Z,33.00
2019-04-21T16:13:32.149Z,32.70
2019-04-21T16:15:36.717Z,32.80
2019-04-21T16:17:39.504Z,32.60
2019-04-21T16:19:43.829Z,32.40
2019-04-21T16:21:46.597Z,32.30
2019-04-21T16:23:50.768Z,32.10
2019-04-21T16:25:54.645Z,32.20
2019-04-21T16:27:57.239Z,32.30
2019-04-21T16:30:01.822Z,32.10
2019-04-21T16:32:04.923Z,32.10
2019-04-21T16:34:09.149Z,32.10
2019-04-21T16:36:13.230Z,31.70
2019-04-21T16:38:15.483Z,31.70
2019-04-21T16:40:19.311Z,32.00
2019-04-21T16:42:22.742Z,32.10
2019-04-21T16:44:27.384Z,32.10
2019-04-21T16:46:29.742Z,32.20
2019-04-21T16:48:33.748Z,32.20
2019-04-21T16:50:37.451Z,32.20
2019-04-21T16:52:45.785Z,32.30
2019-04-21T16:54:51.898Z,32.40
2019-04-21T16:56:59.816Z,32.40
2019-04-21T16:59:08.720Z,32.30
2019-04-21T17:01:18.188Z,32.40
2019-04-21T17:03:19.390Z,32.30
2019-04-21T17:05:24.454Z,32.00
2019-04-21T17:07:26.447Z,32.00
2019-04-21T17:09:30.601Z,32.10
2019-04-21T17:11:35.358Z,32.20
2019-04-21T17:13:38.260Z,32.20
2019-04-21T17:15:56.684Z,32.30
2019-04-21T17:18:06.429Z,32.30
2019-04-21T17:19:50.640Z,32.10
2019-04-21T17:21:52.107Z,31.90
2019-04-21T17:23:54.619Z,31.90
2019-04-21T17:25:59.147Z,31.80
2019-04-21T17:28:01.691Z,31.60
2019-04-21T17:30:06.410Z,31.20
2019-04-21T17:32:09.824Z,31.00
2019-04-21T17:34:17.976Z,30.90
2019-04-21T17:36:16.778Z,30.80
2019-04-21T17:38:19.982Z,30.50
2019-04-21T17:40:24.081Z,30.30
2019-04-21T17:42:36.329Z,30.10
2019-04-21T17:44:30.923Z,29.90
2019-04-21T17:46:43.644Z,29.70
2019-04-21T17:48:38.757Z,29.30
2019-04-21T17:50:53.729Z,29.20
2019-04-21T17:53:04.973Z,29.10
2019-04-21T17:55:17.504Z,28.90
2019-04-21T17:57:34.834Z,28.60
2019-04-21T17:59:50.645Z,28.40
2019-04-21T18:01:45.640Z,28.30
2019-04-21T18:05:44.283Z,27.90
2019-04-21T18:07:50.159Z,27.70
2019-04-21T18:09:56.387Z,27.40
2019-04-21T18:12:01.561Z,27.10
2019-04-21T18:13:42.199Z,26.90
2019-04-21T18:15:56.778Z,26.60
2019-04-21T18:17:50.302Z,26.30
2019-04-21T18:19:54.920Z,26.00
2019-04-21T18:22:09.080Z,25.70
2019-04-21T18:24:17.712Z,25.50
2019-04-21T18:26:25.643Z,25.20
2019-04-21T18:28:18.640Z,25.00
2019-04-21T18:30:28.383Z,24.80
2019-04-21T18:32:35.336Z,24.60
2019-04-21T18:35:14.089Z,24.40
2019-04-21T18:37:31.766Z,24.20
2019-04-21T18:40:05.368Z,24.10
2019-04-21T18:42:17.550Z,23.90
2019-04-21T18:47:03.584Z,23.50
2019-04-21T18:49:00.777Z,23.30
2019-04-21T18:51:10.335Z,23.10
2019-04-21T18:53:23.855Z,23.00
2019-04-21T18:55:26.564Z,22.90
2019-04-21T18:57:27.363Z,22.80
2019-04-21T18:59:31.063Z,22.70
2019-04-21T19:01:30.712Z,22.70
2019-04-21T19:03:37.623Z,22.50
2019-04-21T19:05:34.383Z,22.40
2019-04-21T19:07:59.742Z,22.40
2019-04-21T19:11:59.606Z,22.30
2019-04-21T19:16:31.385Z,22.20
2019-04-21T19:20:25.696Z,22.00
2019-04-21T19:22:31.323Z,21.90
2019-04-21T19:24:33.338Z,21.80
2019-04-21T19:26:37.740Z,21.80
2019-04-21T19:28:41.042Z,21.80
2019-04-21T19:30:42.952Z,21.70
2019-04-21T19:32:38.916Z,21.70
2019-04-21T19:34:35.889Z,21.60
2019-04-21T19:36:33.199Z,21.60
2019-04-21T19:38:48.897Z,21.50
2019-04-21T19:40:50.881Z,21.50
2019-04-21T19:42:57.166Z,21.30
2019-04-21T19:44:59.300Z,21.20
2019-04-21T19:47:09.255Z,21.20
2019-04-21T19:49:19.675Z,21.20
2019-04-21T19:51:15.495Z,21.10
2019-04-21T19:53:07.350Z,21.10
2019-04-21T19:55:06.497Z,20.90
2019-04-21T19:57:09.051Z,20.90
2019-04-21T19:59:18.593Z,20.90
2019-04-21T20:01:15.295Z,20.90
2019-04-21T20:03:18.805Z,20.80
2019-04-21T20:05:31.633Z,20.90
2019-04-21T20:07:45.527Z,20.80
2019-04-21T20:09:45.080Z,20.80
2019-04-21T20:11:48.753Z,20.80
2019-04-21T20:14:13.757Z,20.70
2019-04-21T20:15:56.939Z,20.70
2019-04-21T20:17:58.581Z,20.60
2019-04-21T20:19:47.846Z,20.70
2019-04-21T20:21:51.185Z,20.60
2019-04-21T20:23:58.700Z,20.60
2019-04-21T20:26:01.177Z,20.60
2019-04-21T20:28:09.671Z,20.60
2019-04-21T20:30:23.339Z,20.40
2019-04-21T20:32:32.886Z,20.30
2019-04-21T20:34:33.423Z,20.20
2019-04-21T20:36:35.330Z,20.10
2019-04-21T20:38:32.728Z,20.10
2019-04-21T20:40:30.750Z,20.00
2019-04-21T20:42:42.681Z,19.90
2019-04-21T20:44:55.817Z,19.80
2019-04-21T20:46:53.132Z,19.70
2019-04-21T20:48:51.896Z,19.70
2019-04-21T20:51:00.625Z,19.60
2019-04-21T20:53:06.009Z,19.50
2019-04-21T20:55:02.162Z,19.40
2019-04-21T20:57:11.102Z,19.30
2019-04-21T20:59:12.070Z,19.10
2019-04-21T21:03:24.753Z,18.60
2019-04-21T21:05:24.761Z,18.30
2019-04-21T21:07:40.283Z,18.10
2019-04-21T21:09:29.267Z,18.00
2019-04-21T21:11:45.196Z,17.90
2019-04-21T21:13:44.362Z,17.70
2019-04-21T21:15:44.936Z,17.60
2019-04-21T21:17:52.322Z,17.60
2019-04-21T21:19:53.180Z,17.50
2019-04-21T21:21:49.724Z,17.40
2019-04-21T21:23:53.485Z,17.20
2019-04-21T21:26:01.885Z,17.20
2019-04-21T21:27:59.620Z,16.90
2019-04-21T21:30:09.665Z,16.80
2019-04-21T21:32:18.508Z,16.70
2019-04-21T21:34:25.903Z,16.70
2019-04-21T21:36:20.885Z,16.60
2019-04-21T21:38:25.294Z,16.70
2019-04-21T21:40:26.768Z,16.70
2019-04-21T21:42:24.146Z,16.70
2019-04-21T21:44:21.347Z,16.80
2019-04-21T21:46:35.113Z,16.90
2019-04-21T21:48:37.979Z,16.90
2019-04-21T21:50:42.140Z,17.00
2019-04-21T21:52:44.741Z,16.90
2019-04-21T21:54:35.997Z,16.90
2019-04-21T21:56:38.608Z,16.90
2019-04-21T21:58:44.240Z,17.00
2019-04-21T22:00:49.808Z,17.00
2019-04-21T22:02:51.737Z,17.00
2019-04-21T22:05:01.102Z,17.00
2019-04-21T22:07:03.314Z,16.90
2019-04-21T22:09:00.768Z,16.90
2019-04-21T22:11:03.592Z,16.80
2019-04-21T22:13:12.058Z,16.80
2019-04-21T22:15:17.341Z,16.70
2019-04-21T22:17:29.463Z,16.50
2019-04-21T22:19:36.779Z,16.40
2019-04-21T22:21:42.591Z,16.30
2019-04-21T22:23:37.225Z,16.20
2019-04-21T22:25:33.382Z,16.10
2019-04-21T22:27:32.822Z,16.00
2019-04-21T22:29:41.808Z,16.00
2019-04-21T22:31:39.671Z,16.10
2019-04-21T22:33:48.334Z,16.10
2019-04-21T22:35:53.334Z,16.10
2019-04-21T22:38:02.048Z,16.10
2019-04-21T22:40:04.718Z,16.10
2019-04-21T22:42:05.801Z,16.10
2019-04-21T22:44:01.030Z,16.10
2019-04-21T22:46:05.180Z,16.20
2019-04-21T22:48:14.075Z,16.10
2019-04-21T22:50:16.685Z,16.10
2019-04-21T22:52:22.503Z,16.10
2019-04-21T22:54:29.944Z,16.10
2019-04-21T22:56:31.633Z,16.00
2019-04-21T22:58:35.691Z,15.90
2019-04-21T23:00:41.006Z,15.90
2019-04-21T23:02:38.568Z,15.80
2019-04-21T23:04:46.225Z,15.70
2019-04-21T23:06:44.479Z,15.60
2019-04-21T23:08:49.191Z,15.60
2019-04-21T23:10:57.901Z,15.40
2019-04-21T23:12:58.450Z,15.40
2019-04-21T23:15:05.782Z,15.30
2019-04-21T23:17:26.665Z,15.30
2019-04-21T23:19:24.042Z,15.20
2019-04-21T23:21:19.483Z,15.10
2019-04-21T23:23:37.311Z,15.10
2019-04-21T23:25:31.547Z,15.00
2019-04-21T23:27:42.596Z,15.00
2019-04-21T23:29:55.710Z,14.90
2019-04-21T23:31:47.601Z,14.90
2019-04-21T23:33:31.481Z,14.80
2019-04-21T23:35:38.757Z,14.80
2019-04-21T23:37:44.614Z,14.80
2019-04-21T23:39:41.578Z,14.80
2019-04-21T23:41:50.625Z,14.80
2019-04-21T23:43:55.445Z,14.80
2019-04-21T23:45:52.153Z,14.70
2019-04-21T23:48:10.701Z,14.70
2019-04-21T23:50:05.378Z,14.60
2019-04-21T23:52:06.867Z,14.60
2019-04-21T23:54:07.018Z,14.50
2019-04-21T23:56:13.396Z,14.40
2019-04-21T23:58:20.133Z,14.40
